sensor_id;sensor_type;location;lat;lon;timestamp;temperature;humidity
25046;DHT22;13044;49.304;12.840;2023-05-29T00:01:36;13.60;99.90
25046;DHT22;13044;49.304;12.840;2023-05-29T00:04:03;13.60;99.90
25046;DHT22;13044;49.304;12.840;2023-05-29T00:06:30;13.60;99.90
25046;DHT22;13044;49.304;12.840;2023-05-29T00:08:57;13.60;99.90
25046;DHT22;13044;49.304;12.840;2023-05-29T00:11:24;13.40;99.90
25046;DHT22;13044;49.304;12.840;2023-05-29T00:13:52;13.40;99.90
25046;DHT22;13044;49.304;12.840;2023-05-29T00:16:19;13.40;99.90
25046;DHT22;13044;49.304;12.840;2023-05-29T00:18:46;13.20;99.90
25046;DHT22;13044;49.304;12.840;2023-05-29T00:21:13;13.10;99.90
25046;DHT22;13044;49.304;12.840;2023-05-29T00:23:41;13.10;99.90
25046;DHT22;13044;49.304;12.840;2023-05-29T00:26:10;13.10;99.90
25046;DHT22;13044;49.304;12.840;2023-05-29T00:28:37;13.00;99.90
25046;DHT22;13044;49.304;12.840;2023-05-29T00:31:04;13.10;99.90
25046;DHT22;13044;49.304;12.840;2023-05-29T00:33:31;13.20;99.90
25046;DHT22;13044;49.304;12.840;2023-05-29T00:35:58;13.20;99.90
25046;DHT22;13044;49.304;12.840;2023-05-29T00:38:24;13.10;99.90
25046;DHT22;13044;49.304;12.840;2023-05-29T00:40:51;13.10;99.90
25046;DHT22;13044;49.304;12.840;2023-05-29T00:43:18;13.10;99.90
25046;DHT22;13044;49.304;12.840;2023-05-29T00:45:45;13.00;99.90
25046;DHT22;13044;49.304;12.840;2023-05-29T00:48:12;13.00;99.90
25046;DHT22;13044;49.304;12.840;2023-05-29T00:50:39;13.00;99.90
25046;DHT22;13044;49.304;12.840;2023-05-29T00:53:07;12.90;99.90
25046;DHT22;13044;49.304;12.840;2023-05-29T00:55:35;12.90;99.90
25046;DHT22;13044;49.304;12.840;2023-05-29T00:58:02;13.00;99.90
25046;DHT22;13044;49.304;12.840;2023-05-29T01:00:29;12.90;99.90
25046;DHT22;13044;49.304;12.840;2023-05-29T01:02:57;12.80;99.90
25046;DHT22;13044;49.304;12.840;2023-05-29T01:05:24;12.80;99.90
25046;DHT22;13044;49.304;12.840;2023-05-29T01:07:51;12.60;99.90
25046;DHT22;13044;49.304;12.840;2023-05-29T01:10:18;12.60;99.90
25046;DHT22;13044;49.304;12.840;2023-05-29T01:13:05;12.70;99.90
25046;DHT22;13044;49.304;12.840;2023-05-29T01:16:06;12.70;99.90
25046;DHT22;13044;49.304;12.840;2023-05-29T01:18:51;12.70;99.90
25046;DHT22;13044;49.304;12.840;2023-05-29T01:27:18;12.60;99.90
25046;DHT22;13044;49.304;12.840;2023-05-29T01:29:47;11.90;99.90
25046;DHT22;13044;49.304;12.840;2023-05-29T01:32:16;12.00;99.90
25046;DHT22;13044;49.304;12.840;2023-05-29T01:34:43;12.00;99.90
25046;DHT22;13044;49.304;12.840;2023-05-29T01:37:10;11.80;99.90
25046;DHT22;13044;49.304;12.840;2023-05-29T01:39:38;11.80;99.90
25046;DHT22;13044;49.304;12.840;2023-05-29T01:42:06;11.80;99.90
25046;DHT22;13044;49.304;12.840;2023-05-29T01:44:33;11.90;99.90
25046;DHT22;13044;49.304;12.840;2023-05-29T01:47:02;12.00;99.90
25046;DHT22;13044;49.304;12.840;2023-05-29T01:49:29;11.90;99.90
25046;DHT22;13044;49.304;12.840;2023-05-29T01:51:58;12.00;99.90
25046;DHT22;13044;49.304;12.840;2023-05-29T01:54:25;12.00;99.90
25046;DHT22;13044;49.304;12.840;2023-05-29T01:56:52;11.70;99.90
25046;DHT22;13044;49.304;12.840;2023-05-29T01:59:19;11.70;99.90
25046;DHT22;13044;49.304;12.840;2023-05-29T02:01:47;11.80;99.90
25046;DHT22;13044;49.304;12.840;2023-05-29T02:04:14;11.80;99.90
25046;DHT22;13044;49.304;12.840;2023-05-29T02:06:41;11.80;99.90
25046;DHT22;13044;49.304;12.840;2023-05-29T02:09:08;11.80;99.90
25046;DHT22;13044;49.304;12.840;2023-05-29T02:11:35;11.80;99.90
25046;DHT22;13044;49.304;12.840;2023-05-29T02:14:02;11.90;99.90
25046;DHT22;13044;49.304;12.840;2023-05-29T02:16:30;12.00;99.90
25046;DHT22;13044;49.304;12.840;2023-05-29T02:19:01;12.00;99.90
25046;DHT22;13044;49.304;12.840;2023-05-29T02:21:28;12.00;99.90
25046;DHT22;13044;49.304;12.840;2023-05-29T02:23:55;12.00;99.90
25046;DHT22;13044;49.304;12.840;2023-05-29T02:26:22;12.00;99.90
25046;DHT22;13044;49.304;12.840;2023-05-29T02:28:49;12.00;99.90
25046;DHT22;13044;49.304;12.840;2023-05-29T02:31:16;11.90;99.90
25046;DHT22;13044;49.304;12.840;2023-05-29T02:33:43;11.80;99.90
25046;DHT22;13044;49.304;12.840;2023-05-29T02:36:10;11.80;99.90
25046;DHT22;13044;49.304;12.840;2023-05-29T02:38:38;11.60;99.90
25046;DHT22;13044;49.304;12.840;2023-05-29T02:41:05;11.50;99.90
25046;DHT22;13044;49.304;12.840;2023-05-29T02:43:32;11.50;99.90
25046;DHT22;13044;49.304;12.840;2023-05-29T02:45:59;11.50;99.90
25046;DHT22;13044;49.304;12.840;2023-05-29T02:48:26;11.50;99.90
25046;DHT22;13044;49.304;12.840;2023-05-29T02:50:53;11.50;99.90
25046;DHT22;13044;49.304;12.840;2023-05-29T02:53:20;11.50;99.90
25046;DHT22;13044;49.304;12.840;2023-05-29T02:55:49;11.50;99.90
25046;DHT22;13044;49.304;12.840;2023-05-29T02:58:17;11.40;99.90
25046;DHT22;13044;49.304;12.840;2023-05-29T03:00:44;11.30;99.90
25046;DHT22;13044;49.304;12.840;2023-05-29T03:03:11;11.30;99.90
25046;DHT22;13044;49.304;12.840;2023-05-29T03:05:38;11.30;99.90
25046;DHT22;13044;49.304;12.840;2023-05-29T03:08:05;11.30;99.90
25046;DHT22;13044;49.304;12.840;2023-05-29T03:10:32;11.20;99.90
25046;DHT22;13044;49.304;12.840;2023-05-29T03:12:59;11.30;99.90
25046;DHT22;13044;49.304;12.840;2023-05-29T03:15:25;11.30;99.90
25046;DHT22;13044;49.304;12.840;2023-05-29T03:17:52;11.40;99.90
25046;DHT22;13044;49.304;12.840;2023-05-29T03:20:19;11.40;99.90
25046;DHT22;13044;49.304;12.840;2023-05-29T03:22:46;11.40;99.90
25046;DHT22;13044;49.304;12.840;2023-05-29T03:25:13;11.30;99.90
25046;DHT22;13044;49.304;12.840;2023-05-29T03:27:40;11.40;99.90
25046;DHT22;13044;49.304;12.840;2023-05-29T03:30:08;11.40;99.90
25046;DHT22;13044;49.304;12.840;2023-05-29T03:32:36;11.40;99.90
25046;DHT22;13044;49.304;12.840;2023-05-29T03:35:03;11.40;99.90
25046;DHT22;13044;49.304;12.840;2023-05-29T03:37:30;11.40;99.90
25046;DHT22;13044;49.304;12.840;2023-05-29T03:39:57;11.50;99.90
25046;DHT22;13044;49.304;12.840;2023-05-29T03:42:24;11.40;99.90
25046;DHT22;13044;49.304;12.840;2023-05-29T03:44:50;11.50;99.90
25046;DHT22;13044;49.304;12.840;2023-05-29T03:47:17;11.50;99.90
25046;DHT22;13044;49.304;12.840;2023-05-29T03:49:44;11.50;99.90
25046;DHT22;13044;49.304;12.840;2023-05-29T03:52:11;11.60;99.90
25046;DHT22;13044;49.304;12.840;2023-05-29T03:54:38;11.50;99.90
25046;DHT22;13044;49.304;12.840;2023-05-29T03:57:05;11.50;99.90
25046;DHT22;13044;49.304;12.840;2023-05-29T03:59:33;11.40;99.90
25046;DHT22;13044;49.304;12.840;2023-05-29T04:02:00;11.40;99.90
25046;DHT22;13044;49.304;12.840;2023-05-29T04:04:27;11.40;99.90
25046;DHT22;13044;49.304;12.840;2023-05-29T04:06:54;11.30;99.90
25046;DHT22;13044;49.304;12.840;2023-05-29T04:09:20;11.30;99.90
25046;DHT22;13044;49.304;12.840;2023-05-29T04:11:47;11.30;99.90
25046;DHT22;13044;49.304;12.840;2023-05-29T04:14:14;11.30;99.90
25046;DHT22;13044;49.304;12.840;2023-05-29T04:16:41;11.40;99.90
25046;DHT22;13044;49.304;12.840;2023-05-29T04:19:08;11.30;99.90
25046;DHT22;13044;49.304;12.840;2023-05-29T04:21:35;11.40;99.90
25046;DHT22;13044;49.304;12.840;2023-05-29T04:24:02;11.40;99.90
25046;DHT22;13044;49.304;12.840;2023-05-29T04:26:29;11.50;99.90
25046;DHT22;13044;49.304;12.840;2023-05-29T04:28:59;11.40;99.90
25046;DHT22;13044;49.304;12.840;2023-05-29T04:31:26;11.40;99.90
25046;DHT22;13044;49.304;12.840;2023-05-29T04:33:54;11.50;99.90
25046;DHT22;13044;49.304;12.840;2023-05-29T04:36:25;11.60;99.90
25046;DHT22;13044;49.304;12.840;2023-05-29T04:38:55;11.60;99.90
25046;DHT22;13044;49.304;12.840;2023-05-29T04:41:23;11.70;99.90
25046;DHT22;13044;49.304;12.840;2023-05-29T04:43:56;11.80;99.90
25046;DHT22;13044;49.304;12.840;2023-05-29T04:46:24;11.90;99.90
25046;DHT22;13044;49.304;12.840;2023-05-29T04:48:52;12.10;99.90
25046;DHT22;13044;49.304;12.840;2023-05-29T04:51:21;12.50;99.90
25046;DHT22;13044;49.304;12.840;2023-05-29T04:53:50;13.10;99.90
25046;DHT22;13044;49.304;12.840;2023-05-29T04:56:20;13.90;99.90
25046;DHT22;13044;49.304;12.840;2023-05-29T04:58:47;15.50;99.90
25046;DHT22;13044;49.304;12.840;2023-05-29T05:01:14;17.00;99.90
25046;DHT22;13044;49.304;12.840;2023-05-29T05:03:41;18.50;95.50
25046;DHT22;13044;49.304;12.840;2023-05-29T05:06:09;19.60;92.20
25046;DHT22;13044;49.304;12.840;2023-05-29T05:08:36;20.60;84.00
25046;DHT22;13044;49.304;12.840;2023-05-29T05:11:03;20.90;81.60
25046;DHT22;13044;49.304;12.840;2023-05-29T05:13:30;21.30;78.60
25046;DHT22;13044;49.304;12.840;2023-05-29T05:15:57;21.40;75.00
25046;DHT22;13044;49.304;12.840;2023-05-29T05:18:24;21.70;74.00
25046;DHT22;13044;49.304;12.840;2023-05-29T05:20:51;22.20;69.10
25046;DHT22;13044;49.304;12.840;2023-05-29T05:23:18;22.00;69.20
25046;DHT22;13044;49.304;12.840;2023-05-29T05:25:45;21.50;69.60
25046;DHT22;13044;49.304;12.840;2023-05-29T05:28:12;20.40;72.80
25046;DHT22;13044;49.304;12.840;2023-05-29T05:30:39;19.40;78.30
25046;DHT22;13044;49.304;12.840;2023-05-29T05:33:06;18.40;81.90
25046;DHT22;13044;49.304;12.840;2023-05-29T05:35:34;17.60;85.70
25046;DHT22;13044;49.304;12.840;2023-05-29T05:38:00;17.30;88.20
25046;DHT22;13044;49.304;12.840;2023-05-29T05:40:27;16.90;90.30
25046;DHT22;13044;49.304;12.840;2023-05-29T05:42:55;16.70;91.10
25046;DHT22;13044;49.304;12.840;2023-05-29T05:45:22;16.50;92.00
25046;DHT22;13044;49.304;12.840;2023-05-29T05:47:49;16.40;93.00
25046;DHT22;13044;49.304;12.840;2023-05-29T05:50:16;16.30;94.00
25046;DHT22;13044;49.304;12.840;2023-05-29T05:52:43;16.20;95.30
25046;DHT22;13044;49.304;12.840;2023-05-29T05:55:09;16.00;96.00
25046;DHT22;13044;49.304;12.840;2023-05-29T05:57:36;15.90;96.10
25046;DHT22;13044;49.304;12.840;2023-05-29T06:00:04;15.70;96.80
25046;DHT22;13044;49.304;12.840;2023-05-29T06:02:35;15.70;96.50
25046;DHT22;13044;49.304;12.840;2023-05-29T06:05:02;15.80;97.40
25046;DHT22;13044;49.304;12.840;2023-05-29T06:07:30;15.90;97.40
25046;DHT22;13044;49.304;12.840;2023-05-29T06:09:57;15.90;97.60
25046;DHT22;13044;49.304;12.840;2023-05-29T06:12:24;16.00;97.40
25046;DHT22;13044;49.304;12.840;2023-05-29T06:14:51;16.10;96.30
25046;DHT22;13044;49.304;12.840;2023-05-29T06:17:17;16.10;95.40
25046;DHT22;13044;49.304;12.840;2023-05-29T06:19:48;16.10;95.80
25046;DHT22;13044;49.304;12.840;2023-05-29T06:22:15;16.20;95.40
25046;DHT22;13044;49.304;12.840;2023-05-29T06:24:42;16.30;95.50
25046;DHT22;13044;49.304;12.840;2023-05-29T06:27:09;16.40;95.40
25046;DHT22;13044;49.304;12.840;2023-05-29T06:29:36;16.50;95.40
25046;DHT22;13044;49.304;12.840;2023-05-29T06:32:03;16.60;94.90
25046;DHT22;13044;49.304;12.840;2023-05-29T06:34:30;16.60;94.50
25046;DHT22;13044;49.304;12.840;2023-05-29T06:36:57;16.70;93.90
25046;DHT22;13044;49.304;12.840;2023-05-29T06:39:24;16.70;94.00
25046;DHT22;13044;49.304;12.840;2023-05-29T06:41:51;16.70;94.30
25046;DHT22;13044;49.304;12.840;2023-05-29T06:44:18;16.90;94.20
25046;DHT22;13044;49.304;12.840;2023-05-29T06:46:45;16.90;94.00
25046;DHT22;13044;49.304;12.840;2023-05-29T06:49:12;17.00;94.00
25046;DHT22;13044;49.304;12.840;2023-05-29T06:51:39;17.00;94.30
25046;DHT22;13044;49.304;12.840;2023-05-29T06:54:06;17.10;94.10
25046;DHT22;13044;49.304;12.840;2023-05-29T06:56:33;17.10;93.70
25046;DHT22;13044;49.304;12.840;2023-05-29T06:59:00;17.20;94.20
25046;DHT22;13044;49.304;12.840;2023-05-29T07:01:27;17.30;94.20
25046;DHT22;13044;49.304;12.840;2023-05-29T07:03:54;17.40;93.80
25046;DHT22;13044;49.304;12.840;2023-05-29T07:06:21;17.60;93.80
25046;DHT22;13044;49.304;12.840;2023-05-29T07:08:48;17.70;93.10
25046;DHT22;13044;49.304;12.840;2023-05-29T07:11:15;17.80;92.50
25046;DHT22;13044;49.304;12.840;2023-05-29T07:13:41;17.90;91.50
25046;DHT22;13044;49.304;12.840;2023-05-29T07:16:08;17.90;91.60
25046;DHT22;13044;49.304;12.840;2023-05-29T07:18:50;18.00;89.30
25046;DHT22;13044;49.304;12.840;2023-05-29T07:21:17;18.10;90.60
25046;DHT22;13044;49.304;12.840;2023-05-29T07:23:45;18.10;88.80
25046;DHT22;13044;49.304;12.840;2023-05-29T07:26:12;18.20;88.30
25046;DHT22;13044;49.304;12.840;2023-05-29T07:28:39;18.30;86.60
25046;DHT22;13044;49.304;12.840;2023-05-29T07:31:06;18.40;87.00
25046;DHT22;13044;49.304;12.840;2023-05-29T07:33:32;18.50;86.40
25046;DHT22;13044;49.304;12.840;2023-05-29T07:35:59;18.60;82.50
25046;DHT22;13044;49.304;12.840;2023-05-29T07:38:26;18.70;82.60
25046;DHT22;13044;49.304;12.840;2023-05-29T07:40:56;18.70;80.00
25046;DHT22;13044;49.304;12.840;2023-05-29T07:43:24;18.80;79.10
25046;DHT22;13044;49.304;12.840;2023-05-29T07:45:51;18.80;78.70
25046;DHT22;13044;49.304;12.840;2023-05-29T07:48:18;18.80;76.50
25046;DHT22;13044;49.304;12.840;2023-05-29T07:50:48;18.90;77.30
25046;DHT22;13044;49.304;12.840;2023-05-29T07:53:15;19.00;76.70
25046;DHT22;13044;49.304;12.840;2023-05-29T07:55:42;19.00;76.70
25046;DHT22;13044;49.304;12.840;2023-05-29T07:58:09;19.10;76.10
25046;DHT22;13044;49.304;12.840;2023-05-29T08:00:39;19.10;76.30
25046;DHT22;13044;49.304;12.840;2023-05-29T08:03:06;19.20;75.00
25046;DHT22;13044;49.304;12.840;2023-05-29T08:05:33;19.10;74.90
25046;DHT22;13044;49.304;12.840;2023-05-29T08:08:00;19.20;76.10
25046;DHT22;13044;49.304;12.840;2023-05-29T08:10:27;19.30;75.80
25046;DHT22;13044;49.304;12.840;2023-05-29T08:12:54;19.20;74.00
25046;DHT22;13044;49.304;12.840;2023-05-29T08:15:21;19.30;76.10
25046;DHT22;13044;49.304;12.840;2023-05-29T08:17:50;19.40;75.10
25046;DHT22;13044;49.304;12.840;2023-05-29T08:20:17;19.30;74.10
25046;DHT22;13044;49.304;12.840;2023-05-29T08:22:45;19.40;75.50
25046;DHT22;13044;49.304;12.840;2023-05-29T08:25:12;19.50;75.70
25046;DHT22;13044;49.304;12.840;2023-05-29T08:27:39;19.70;73.80
25046;DHT22;13044;49.304;12.840;2023-05-29T08:30:06;19.80;73.10
25046;DHT22;13044;49.304;12.840;2023-05-29T08:32:34;19.90;72.00
25046;DHT22;13044;49.304;12.840;2023-05-29T08:35:00;19.90;72.60
25046;DHT22;13044;49.304;12.840;2023-05-29T08:37:27;20.00;70.50
25046;DHT22;13044;49.304;12.840;2023-05-29T08:39:54;20.00;71.00
25046;DHT22;13044;49.304;12.840;2023-05-29T08:42:29;20.00;71.40
25046;DHT22;13044;49.304;12.840;2023-05-29T08:45:02;20.10;70.90
25046;DHT22;13044;49.304;12.840;2023-05-29T08:47:32;20.20;71.60
25046;DHT22;13044;49.304;12.840;2023-05-29T08:50:01;20.40;72.30
25046;DHT22;13044;49.304;12.840;2023-05-29T08:52:32;20.50;70.40
25046;DHT22;13044;49.304;12.840;2023-05-29T08:55:04;20.60;71.50
25046;DHT22;13044;49.304;12.840;2023-05-29T08:57:32;20.60;70.90
25046;DHT22;13044;49.304;12.840;2023-05-29T08:59:59;20.70;72.60
25046;DHT22;13044;49.304;12.840;2023-05-29T09:02:27;20.80;72.20
25046;DHT22;13044;49.304;12.840;2023-05-29T09:04:54;20.70;71.80
25046;DHT22;13044;49.304;12.840;2023-05-29T09:07:22;20.80;72.80
25046;DHT22;13044;49.304;12.840;2023-05-29T09:09:51;20.90;72.60
25046;DHT22;13044;49.304;12.840;2023-05-29T09:12:18;21.00;71.90
25046;DHT22;13044;49.304;12.840;2023-05-29T09:14:45;20.90;72.70
25046;DHT22;13044;49.304;12.840;2023-05-29T09:17:13;21.00;72.00
25046;DHT22;13044;49.304;12.840;2023-05-29T09:19:42;21.00;71.70
25046;DHT22;13044;49.304;12.840;2023-05-29T09:22:13;21.10;72.20
25046;DHT22;13044;49.304;12.840;2023-05-29T09:24:48;21.20;71.30
25046;DHT22;13044;49.304;12.840;2023-05-29T09:27:18;21.20;70.90
25046;DHT22;13044;49.304;12.840;2023-05-29T09:29:45;21.30;71.00
25046;DHT22;13044;49.304;12.840;2023-05-29T09:32:16;21.30;68.90
25046;DHT22;13044;49.304;12.840;2023-05-29T09:34:45;21.40;70.60
25046;DHT22;13044;49.304;12.840;2023-05-29T09:37:12;21.60;69.20
25046;DHT22;13044;49.304;12.840;2023-05-29T09:39:49;21.70;69.20
25046;DHT22;13044;49.304;12.840;2023-05-29T09:42:18;21.80;67.80
25046;DHT22;13044;49.304;12.840;2023-05-29T09:44:49;21.80;68.30
25046;DHT22;13044;49.304;12.840;2023-05-29T09:47:20;21.80;67.30
25046;DHT22;13044;49.304;12.840;2023-05-29T09:49:47;21.80;67.00
25046;DHT22;13044;49.304;12.840;2023-05-29T09:52:15;21.90;66.60
25046;DHT22;13044;49.304;12.840;2023-05-29T09:54:43;22.00;66.00
25046;DHT22;13044;49.304;12.840;2023-05-29T09:57:14;22.00;65.40
25046;DHT22;13044;49.304;12.840;2023-05-29T09:59:43;22.00;65.80
25046;DHT22;13044;49.304;12.840;2023-05-29T10:02:18;22.10;66.00
25046;DHT22;13044;49.304;12.840;2023-05-29T10:04:45;22.20;64.50
25046;DHT22;13044;49.304;12.840;2023-05-29T10:07:29;22.20;65.00
25046;DHT22;13044;49.304;12.840;2023-05-29T10:10:04;22.40;64.30
25046;DHT22;13044;49.304;12.840;2023-05-29T10:12:34;22.40;63.90
25046;DHT22;13044;49.304;12.840;2023-05-29T10:15:12;22.40;64.00
25046;DHT22;13044;49.304;12.840;2023-05-29T10:18:02;22.40;62.60
25046;DHT22;13044;49.304;12.840;2023-05-29T10:20:36;22.50;64.30
25046;DHT22;13044;49.304;12.840;2023-05-29T10:23:04;22.70;63.70
25046;DHT22;13044;49.304;12.840;2023-05-29T10:25:33;22.80;62.90
25046;DHT22;13044;49.304;12.840;2023-05-29T10:28:02;22.80;63.30
25046;DHT22;13044;49.304;12.840;2023-05-29T10:30:45;22.80;62.00
25046;DHT22;13044;49.304;12.840;2023-05-29T10:36:21;22.90;60.90
25046;DHT22;13044;49.304;12.840;2023-05-29T10:38:51;23.00;60.40
25046;DHT22;13044;49.304;12.840;2023-05-29T10:43:57;22.90;59.70
25046;DHT22;13044;49.304;12.840;2023-05-29T10:49:18;23.00;60.60
25046;DHT22;13044;49.304;12.840;2023-05-29T10:51:46;23.20;61.90
25046;DHT22;13044;49.304;12.840;2023-05-29T10:54:13;23.30;59.70
25046;DHT22;13044;49.304;12.840;2023-05-29T10:56:41;23.50;59.20
25046;DHT22;13044;49.304;12.840;2023-05-29T10:59:08;23.70;59.30
25046;DHT22;13044;49.304;12.840;2023-05-29T11:01:38;23.70;58.10
25046;DHT22;13044;49.304;12.840;2023-05-29T11:06:51;23.30;58.20
25046;DHT22;13044;49.304;12.840;2023-05-29T11:09:38;23.30;58.70
25046;DHT22;13044;49.304;12.840;2023-05-29T11:12:23;23.50;58.20
25046;DHT22;13044;49.304;12.840;2023-05-29T11:20:07;23.60;58.20
25046;DHT22;13044;49.304;12.840;2023-05-29T11:25:16;23.80;57.90
25046;DHT22;13044;49.304;12.840;2023-05-29T11:27:44;23.70;56.30
25046;DHT22;13044;49.304;12.840;2023-05-29T11:30:11;23.60;57.10
25046;DHT22;13044;49.304;12.840;2023-05-29T11:32:40;23.80;57.00
25046;DHT22;13044;49.304;12.840;2023-05-29T11:35:08;23.90;56.90
25046;DHT22;13044;49.304;12.840;2023-05-29T11:37:37;24.00;56.10
25046;DHT22;13044;49.304;12.840;2023-05-29T11:40:06;24.00;55.60
25046;DHT22;13044;49.304;12.840;2023-05-29T11:42:35;24.10;55.90
25046;DHT22;13044;49.304;12.840;2023-05-29T11:45:19;24.10;54.90
25046;DHT22;13044;49.304;12.840;2023-05-29T11:48:01;24.20;53.00
25046;DHT22;13044;49.304;12.840;2023-05-29T11:50:31;24.40;52.70
25046;DHT22;13044;49.304;12.840;2023-05-29T11:53:00;24.30;52.10
25046;DHT22;13044;49.304;12.840;2023-05-29T11:55:27;24.30;52.50
25046;DHT22;13044;49.304;12.840;2023-05-29T11:57:59;24.30;52.10
25046;DHT22;13044;49.304;12.840;2023-05-29T12:00:35;24.20;52.40
25046;DHT22;13044;49.304;12.840;2023-05-29T12:03:05;24.30;52.70
25046;DHT22;13044;49.304;12.840;2023-05-29T12:05:45;24.30;51.50
25046;DHT22;13044;49.304;12.840;2023-05-29T12:08:15;24.40;51.40
25046;DHT22;13044;49.304;12.840;2023-05-29T12:10:50;24.40;52.40
25046;DHT22;13044;49.304;12.840;2023-05-29T12:13:21;24.40;51.50
25046;DHT22;13044;49.304;12.840;2023-05-29T12:15:53;24.40;51.10
25046;DHT22;13044;49.304;12.840;2023-05-29T12:18:22;24.40;51.60
25046;DHT22;13044;49.304;12.840;2023-05-29T12:20:50;24.60;51.10
25046;DHT22;13044;49.304;12.840;2023-05-29T12:23:18;24.80;50.30
25046;DHT22;13044;49.304;12.840;2023-05-29T12:25:51;24.80;50.20
25046;DHT22;13044;49.304;12.840;2023-05-29T12:28:21;24.70;49.90
25046;DHT22;13044;49.304;12.840;2023-05-29T12:30:49;24.80;49.80
25046;DHT22;13044;49.304;12.840;2023-05-29T12:33:31;24.90;50.80
25046;DHT22;13044;49.304;12.840;2023-05-29T12:36:06;24.90;49.50
25046;DHT22;13044;49.304;12.840;2023-05-29T12:38:49;24.90;49.60
25046;DHT22;13044;49.304;12.840;2023-05-29T12:41:28;24.90;49.10
25046;DHT22;13044;49.304;12.840;2023-05-29T12:44:03;24.80;48.30
25046;DHT22;13044;49.304;12.840;2023-05-29T12:46:40;24.80;48.00
25046;DHT22;13044;49.304;12.840;2023-05-29T12:49:17;24.90;48.90
25046;DHT22;13044;49.304;12.840;2023-05-29T12:51:47;25.10;48.80
25046;DHT22;13044;49.304;12.840;2023-05-29T12:54:15;25.30;47.30
25046;DHT22;13044;49.304;12.840;2023-05-29T12:56:43;25.20;47.40
25046;DHT22;13044;49.304;12.840;2023-05-29T12:59:11;25.30;46.50
25046;DHT22;13044;49.304;12.840;2023-05-29T13:01:39;25.30;46.30
25046;DHT22;13044;49.304;12.840;2023-05-29T13:04:10;25.40;46.90
25046;DHT22;13044;49.304;12.840;2023-05-29T13:06:40;25.30;46.60
25046;DHT22;13044;49.304;12.840;2023-05-29T13:09:07;25.40;47.70
25046;DHT22;13044;49.304;12.840;2023-05-29T13:11:35;25.50;47.30
25046;DHT22;13044;49.304;12.840;2023-05-29T13:14:04;25.60;47.00
25046;DHT22;13044;49.304;12.840;2023-05-29T13:16:31;25.80;46.80
25046;DHT22;13044;49.304;12.840;2023-05-29T13:18:58;25.80;46.80
25046;DHT22;13044;49.304;12.840;2023-05-29T13:21:26;25.90;46.70
25046;DHT22;13044;49.304;12.840;2023-05-29T13:23:56;26.00;45.20
25046;DHT22;13044;49.304;12.840;2023-05-29T13:26:25;25.90;45.00
25046;DHT22;13044;49.304;12.840;2023-05-29T13:28:53;25.90;45.00
25046;DHT22;13044;49.304;12.840;2023-05-29T13:31:20;26.00;42.80
25046;DHT22;13044;49.304;12.840;2023-05-29T13:33:47;26.00;43.00
25046;DHT22;13044;49.304;12.840;2023-05-29T13:36:14;25.90;44.60
25046;DHT22;13044;49.304;12.840;2023-05-29T13:38:41;26.00;45.20
25046;DHT22;13044;49.304;12.840;2023-05-29T13:41:08;26.00;44.40
25046;DHT22;13044;49.304;12.840;2023-05-29T13:43:35;25.90;45.30
25046;DHT22;13044;49.304;12.840;2023-05-29T13:46:11;25.90;45.70
25046;DHT22;13044;49.304;12.840;2023-05-29T13:48:39;26.00;44.20
25046;DHT22;13044;49.304;12.840;2023-05-29T13:51:06;26.10;43.50
25046;DHT22;13044;49.304;12.840;2023-05-29T13:53:33;26.00;45.20
25046;DHT22;13044;49.304;12.840;2023-05-29T13:55:59;25.80;43.90
25046;DHT22;13044;49.304;12.840;2023-05-29T13:58:26;25.90;44.60
25046;DHT22;13044;49.304;12.840;2023-05-29T14:00:53;26.00;45.30
25046;DHT22;13044;49.304;12.840;2023-05-29T14:03:21;26.10;44.00
25046;DHT22;13044;49.304;12.840;2023-05-29T14:05:53;26.20;44.80
25046;DHT22;13044;49.304;12.840;2023-05-29T14:08:21;26.20;43.60
25046;DHT22;13044;49.304;12.840;2023-05-29T14:10:48;26.30;44.10
25046;DHT22;13044;49.304;12.840;2023-05-29T14:13:15;26.30;43.10
25046;DHT22;13044;49.304;12.840;2023-05-29T14:15:41;26.40;43.30
25046;DHT22;13044;49.304;12.840;2023-05-29T14:18:09;26.30;44.30
25046;DHT22;13044;49.304;12.840;2023-05-29T14:20:36;26.00;43.20
25046;DHT22;13044;49.304;12.840;2023-05-29T14:23:03;26.00;43.80
25046;DHT22;13044;49.304;12.840;2023-05-29T14:25:33;26.20;44.70
25046;DHT22;13044;49.304;12.840;2023-05-29T14:28:00;26.30;44.80
25046;DHT22;13044;49.304;12.840;2023-05-29T14:30:27;26.30;43.20
25046;DHT22;13044;49.304;12.840;2023-05-29T14:32:53;26.30;42.30
25046;DHT22;13044;49.304;12.840;2023-05-29T14:35:22;26.30;43.80
25046;DHT22;13044;49.304;12.840;2023-05-29T14:37:49;26.20;44.80
25046;DHT22;13044;49.304;12.840;2023-05-29T14:40:17;26.40;44.50
25046;DHT22;13044;49.304;12.840;2023-05-29T14:42:45;26.50;43.10
25046;DHT22;13044;49.304;12.840;2023-05-29T14:45:16;26.40;42.40
25046;DHT22;13044;49.304;12.840;2023-05-29T14:47:43;26.30;42.90
25046;DHT22;13044;49.304;12.840;2023-05-29T14:50:11;26.40;42.40
25046;DHT22;13044;49.304;12.840;2023-05-29T14:52:38;26.40;42.50
25046;DHT22;13044;49.304;12.840;2023-05-29T14:55:05;26.40;43.20
25046;DHT22;13044;49.304;12.840;2023-05-29T14:57:32;26.60;43.60
25046;DHT22;13044;49.304;12.840;2023-05-29T15:00:01;26.60;43.40
25046;DHT22;13044;49.304;12.840;2023-05-29T15:02:29;26.60;43.20
25046;DHT22;13044;49.304;12.840;2023-05-29T15:04:58;26.60;43.80
25046;DHT22;13044;49.304;12.840;2023-05-29T15:07:25;26.70;43.60
25046;DHT22;13044;49.304;12.840;2023-05-29T15:09:52;26.70;42.80
25046;DHT22;13044;49.304;12.840;2023-05-29T15:12:19;26.70;43.30
25046;DHT22;13044;49.304;12.840;2023-05-29T15:14:46;26.70;42.50
25046;DHT22;13044;49.304;12.840;2023-05-29T15:17:13;26.70;43.20
25046;DHT22;13044;49.304;12.840;2023-05-29T15:19:39;26.80;43.40
25046;DHT22;13044;49.304;12.840;2023-05-29T15:22:07;26.90;42.90
25046;DHT22;13044;49.304;12.840;2023-05-29T15:24:37;26.90;42.60
25046;DHT22;13044;49.304;12.840;2023-05-29T15:27:04;27.00;43.30
25046;DHT22;13044;49.304;12.840;2023-05-29T15:29:34;27.10;42.10
25046;DHT22;13044;49.304;12.840;2023-05-29T15:32:02;27.10;42.80
25046;DHT22;13044;49.304;12.840;2023-05-29T15:34:29;27.00;43.20
25046;DHT22;13044;49.304;12.840;2023-05-29T15:36:56;27.00;43.40
25046;DHT22;13044;49.304;12.840;2023-05-29T15:39:23;27.10;43.40
25046;DHT22;13044;49.304;12.840;2023-05-29T15:41:52;27.10;42.70
25046;DHT22;13044;49.304;12.840;2023-05-29T15:44:23;27.20;42.20
25046;DHT22;13044;49.304;12.840;2023-05-29T15:46:53;27.20;42.10
25046;DHT22;13044;49.304;12.840;2023-05-29T15:49:20;27.10;42.20